Blooming Grove, New York
Current Conditions -  °F | °C
As of 3:45 PM on Thursday 23 Oct 2014 (Local Time) from KSWF Reporting Station
Overcast Overcast  
Wind Chill: 50°   Ceiling: 3000
Heat Index: 50°   Visibility: 10mi
Dew Point: 46°   Wind: 14mph
Humidity: 87%   Direction: 20°NNE
Pressure: 29.77"   Gusts: NA
Location:  41.41°N, 74.19°W
Report Text: KSWF 231945Z 02012KT 10SM SCT020 OVC030 10/08 A2977
Loading
Personal Weather Stations






























Interactive Weather Map New forecast layout! Learn more

10-Day Weather Forecast

Advertisements
Track Severe Weather on mobile